Time;durP1;ratioP1;P1;durP2;ratioP2;P2;SDS_P1;SDS_P2;PMS_P1;PMS_P2;Temp;Humidity;BMP_temperature;BMP_pressure;BME280_temperature;BME280_humidity;BME280_pressure;Samples;Min_cycle;Max_cycle;Signal;HPM_P1;HPM_P2
2021/10/12 00:01:49;;;;;;;9.75;6.18;;;10.40;1.00;;;;;;4863372;29;20513;-77
2021/10/12 00:04:14;;;;;;;8.32;6.68;;;10.40;1.00;;;;;;4864470;29;20128;-77
2021/10/12 00:06:40;;;;;;;8.73;6.50;;;10.40;1.00;;;;;;4863889;29;20057;-77
2021/10/12 00:09:06;;;;;;;9.48;6.60;;;10.40;1.00;;;;;;4864280;29;20543;-77
2021/10/12 00:11:32;;;;;;;8.85;6.40;;;10.30;1.00;;;;;;4863900;29;20053;-77
2021/10/12 00:13:58;;;;;;;7.45;5.95;;;10.30;1.00;;;;;;4863881;29;20569;-76
2021/10/12 00:16:24;;;;;;;7.32;6.18;;;10.30;1.00;;;;;;4863387;29;20041;-77
2021/10/12 00:18:50;;;;;;;7.85;6.07;;;10.20;1.00;;;;;;4864120;29;20073;-77
2021/10/12 00:21:16;;;;;;;8.73;6.05;;;10.20;1.00;;;;;;4863878;29;20541;-77
2021/10/12 00:23:42;;;;;;;6.72;5.80;;;10.20;1.00;;;;;;4862428;29;20135;-77
2021/10/12 00:26:08;;;;;;;8.13;6.40;;;10.10;1.00;;;;;;4863664;29;20137;-77
2021/10/12 00:28:34;;;;;;;6.45;5.70;;;10.20;1.00;;;;;;4863318;29;20102;-77
2021/10/12 00:31:05;;;;;;;9.05;6.28;;;10.20;1.00;;;;;;4862189;29;20056;-77
2021/10/12 00:33:31;;;;;;;6.72;5.80;;;10.20;1.00;;;;;;4863620;29;20124;-74
2021/10/12 00:35:57;;;;;;;8.75;6.40;;;10.10;1.00;;;;;;4863700;29;20120;-74
2021/10/12 00:38:24;;;;;;;8.00;5.68;;;10.00;1.00;;;;;;4864049;29;20080;-75
2021/10/12 00:40:50;;;;;;;8.07;5.97;;;9.90;1.00;;;;;;4863500;29;20082;-75
2021/10/12 00:43:17;;;;;;;7.82;6.00;;;9.90;1.00;;;;;;4863629;29;20052;-74
2021/10/12 00:45:43;;;;;;;7.82;5.68;;;9.80;1.00;;;;;;4863316;29;20406;-76
2021/10/12 00:48:10;;;;;;;8.68;6.15;;;9.80;1.00;;;;;;4863381;29;20045;-77
2021/10/12 00:50:38;;;;;;;9.05;5.90;;;9.70;1.00;;;;;;4863180;29;20053;-77
2021/10/12 00:53:04;;;;;;;10.32;6.47;;;9.70;1.00;;;;;;4862949;29;20045;-77
2021/10/12 00:55:31;;;;;;;9.70;5.75;;;9.60;1.00;;;;;;4846688;29;20045;-77
2021/10/12 00:57:57;;;;;;;6.57;5.65;;;9.50;1.00;;;;;;4863434;29;20053;-77
2021/10/12 01:00:23;;;;;;;7.90;5.75;;;9.60;1.00;;;;;;4863207;29;20382;-77
2021/10/12 01:02:49;;;;;;;7.93;6.03;;;9.60;1.00;;;;;;4862510;29;20089;-77
2021/10/12 01:05:15;;;;;;;7.38;5.93;;;9.60;1.00;;;;;;4863258;29;20060;-77
2021/10/12 01:07:41;;;;;;;8.40;5.88;;;9.60;1.00;;;;;;4862710;29;20072;-77
2021/10/12 01:10:09;;;;;;;6.80;5.78;;;9.60;1.00;;;;;;4863177;29;20041;-77
2021/10/12 01:12:37;;;;;;;7.75;6.00;;;9.60;1.00;;;;;;4862590;29;20498;-77
2021/10/12 01:15:08;;;;;;;7.78;6.03;;;9.60;1.00;;;;;;4862792;29;20056;-77
2021/10/12 01:17:35;;;;;;;7.97;5.90;;;9.60;1.00;;;;;;4862539;29;20048;-77
2021/10/12 01:20:07;;;;;;;7.80;5.60;;;9.60;1.00;;;;;;4846328;29;20078;-77
2021/10/12 01:22:33;;;;;;;6.05;4.47;;;9.60;1.00;;;;;;4862465;29;20077;-77
2021/10/12 01:24:59;;;;;;;6.13;4.60;;;9.70;1.00;;;;;;4862464;29;20041;-77
2021/10/12 01:27:25;;;;;;;6.68;5.28;;;9.90;1.00;;;;;;4862705;29;20042;-77
2021/10/12 01:29:51;;;;;;;5.68;5.05;;;9.90;1.00;;;;;;4862367;29;20041;-77
2021/10/12 01:32:17;;;;;;;7.00;5.05;;;10.00;1.00;;;;;;4862520;29;20045;-77
2021/10/12 01:34:43;;;;;;;5.30;4.28;;;10.00;1.00;;;;;;4862432;29;20040;-77
2021/10/12 01:37:09;;;;;;;6.68;5.03;;;10.10;1.00;;;;;;4862498;29;20056;-77
2021/10/12 01:39:35;;;;;;;9.13;5.00;;;10.10;1.00;;;;;;4863038;29;20035;-77
2021/10/12 01:42:01;;;;;;;5.97;5.03;;;10.10;1.00;;;;;;4862365;29;20080;-77
2021/10/12 01:44:27;;;;;;;6.60;5.20;;;10.00;1.00;;;;;;4862643;29;20049;-76
2021/10/12 01:46:53;;;;;;;7.78;5.07;;;10.20;1.00;;;;;;4862166;29;20494;-77
2021/10/12 01:49:20;;;;;;;8.30;5.07;;;10.20;1.00;;;;;;4862399;29;20153;-77
2021/10/12 01:51:46;;;;;;;6.93;4.88;;;10.40;1.00;;;;;;4861877;29;20128;-77
2021/10/12 01:54:20;;;;;;;6.20;4.60;;;10.50;1.00;;;;;;4862043;29;20080;-77
2021/10/12 01:56:48;;;;;;;6.03;4.63;;;10.60;1.00;;;;;;4860938;29;20041;-74
2021/10/12 01:59:14;;;;;;;5.85;4.93;;;10.50;1.00;;;;;;4860759;29;20501;-75
2021/10/12 02:01:41;;;;;;;8.18;5.75;;;10.60;1.00;;;;;;4860459;29;20414;-75
2021/10/12 02:04:07;;;;;;;10.52;5.22;;;10.60;1.00;;;;;;4862134;29;20045;-75
2021/10/12 02:06:33;;;;;;;6.65;4.90;;;10.50;1.00;;;;;;4861519;29;20113;-75
2021/10/12 02:08:59;;;;;;;7.40;5.15;;;10.50;1.00;;;;;;4862447;29;20045;-77
2021/10/12 02:11:25;;;;;;;5.90;4.63;;;10.60;1.00;;;;;;4862383;29;20098;-77
2021/10/12 02:13:51;;;;;;;5.70;4.60;;;10.60;1.00;;;;;;4861417;29;20041;-77
2021/10/12 02:16:17;;;;;;;8.70;5.65;;;10.50;1.00;;;;;;4862164;29;20052;-77
2021/10/12 02:18:43;;;;;;;10.27;5.47;;;10.50;1.00;;;;;;4862638;29;20553;-77
2021/10/12 02:21:09;;;;;;;8.13;5.53;;;10.40;1.00;;;;;;4861911;29;20045;-77
2021/10/12 02:23:34;;;;;;;7.57;5.53;;;10.50;1.00;;;;;;4861077;29;20049;-77
2021/10/12 02:26:00;;;;;;;10.35;5.32;;;10.50;1.00;;;;;;4862800;29;20369;-77
2021/10/12 02:28:26;;;;;;;7.45;5.07;;;10.50;1.00;;;;;;4862538;29;20048;-77
2021/10/12 02:30:52;;;;;;;7.57;5.15;;;10.50;1.00;;;;;;4862489;29;20577;-77
2021/10/12 02:33:18;;;;;;;7.35;6.07;;;10.40;1.00;;;;;;4862227;29;20037;-77
2021/10/12 02:35:43;;;;;;;7.60;5.65;;;10.50;1.00;;;;;;4862174;29;20066;-77
2021/10/12 02:38:09;;;;;;;9.55;6.03;;;10.60;1.00;;;;;;4862514;29;20040;-77
2021/10/12 02:40:35;;;;;;;10.10;5.47;;;10.60;1.00;;;;;;4861774;29;20045;-77
2021/10/12 02:43:01;;;;;;;7.55;5.78;;;10.60;1.00;;;;;;4860870;29;20047;-77
2021/10/12 02:45:27;;;;;;;8.93;6.00;;;10.70;1.00;;;;;;4862195;29;20049;-77
2021/10/12 02:47:52;;;;;;;8.25;5.28;;;10.70;1.00;;;;;;4862690;29;20045;-77
2021/10/12 02:50:18;;;;;;;6.80;5.53;;;10.80;1.00;;;;;;4862297;29;20462;-77
2021/10/12 02:52:44;;;;;;;12.38;5.75;;;10.70;1.00;;;;;;4861772;29;20048;-77
2021/10/12 02:55:10;;;;;;;8.35;5.90;;;10.70;1.00;;;;;;4861065;29;20084;-77
2021/10/12 02:57:36;;;;;;;7.90;6.40;;;10.80;1.00;;;;;;4862321;29;20068;-77
2021/10/12 03:00:05;;;;;;;10.80;6.78;;;10.80;1.00;;;;;;4861890;29;20513;-77
2021/10/12 03:02:31;;;;;;;8.18;6.18;;;10.80;1.00;;;;;;4861437;29;20050;-77
2021/10/12 03:04:57;;;;;;;10.93;6.45;;;10.80;1.00;;;;;;4845004;29;20040;-77
2021/10/12 03:07:23;;;;;;;7.65;6.13;;;10.70;1.00;;;;;;4860560;29;20402;-77
2021/10/12 03:09:48;;;;;;;9.32;6.93;;;10.70;1.00;;;;;;4860352;29;20058;-77
2021/10/12 03:12:14;;;;;;;9.40;6.93;;;10.70;1.00;;;;;;4861548;29;20098;-77
2021/10/12 03:14:43;;;;;;;9.88;6.90;;;10.70;1.00;;;;;;4862112;29;20038;-77
2021/10/12 03:17:09;;;;;;;11.25;7.90;;;10.60;1.00;;;;;;4862838;29;20052;-77
2021/10/12 03:19:35;;;;;;;11.23;7.72;;;10.70;1.00;;;;;;4865181;29;20393;-77
2021/10/12 03:22:10;;;;;;;9.20;7.25;;;10.60;1.00;;;;;;4864811;29;20057;-77
2021/10/12 03:24:36;;;;;;;13.70;8.23;;;10.60;1.00;;;;;;4865035;29;20049;-77
2021/10/12 03:27:02;;;;;;;9.93;7.60;;;10.50;1.00;;;;;;4864455;29;20045;-77
2021/10/12 03:29:28;;;;;;;10.13;7.45;;;10.60;1.00;;;;;;4864470;29;20161;-77
2021/10/12 03:31:54;;;;;;;15.30;8.32;;;10.50;1.00;;;;;;4864192;29;20049;-77
2021/10/12 03:34:20;;;;;;;9.20;7.45;;;10.50;1.00;;;;;;4863391;29;20064;-77
2021/10/12 03:36:45;;;;;;;9.85;7.80;;;10.40;1.00;;;;;;4863302;29;20046;-77
2021/10/12 03:39:11;;;;;;;10.40;7.93;;;10.40;1.00;;;;;;4864447;29;20072;-76
2021/10/12 03:41:37;;;;;;;10.57;7.75;;;10.40;1.00;;;;;;4864400;29;20101;-77
2021/10/12 03:44:03;;;;;;;9.88;7.72;;;10.40;1.00;;;;;;4847851;29;20501;-77
2021/10/12 03:46:29;;;;;;;11.25;8.15;;;10.40;1.00;;;;;;4864202;29;20549;-77
2021/10/12 03:48:55;;;;;;;9.73;7.35;;;10.40;1.00;;;;;;4862847;29;20034;-77
2021/10/12 03:51:21;;;;;;;12.90;8.02;;;10.40;1.00;;;;;;4864312;29;20053;-77
2021/10/12 03:53:46;;;;;;;11.43;8.10;;;10.40;1.00;;;;;;4864806;29;20042;-77
2021/10/12 03:56:12;;;;;;;9.55;7.85;;;10.30;1.00;;;;;;4864193;29;20050;-77
2021/10/12 03:58:38;;;;;;;12.07;7.95;;;10.30;1.00;;;;;;4864433;29;20125;-77
2021/10/12 04:01:04;;;;;;;11.27;8.00;;;10.30;1.00;;;;;;4863602;29;20053;-76
2021/10/12 04:03:30;;;;;;;10.25;8.10;;;10.30;1.00;;;;;;4863610;29;20536;-77
2021/10/12 04:05:56;;;;;;;9.10;6.93;;;10.30;1.00;;;;;;4863198;29;20038;-77
2021/10/12 04:08:21;;;;;;;10.73;8.15;;;10.30;1.00;;;;;;4862501;29;20498;-77
2021/10/12 04:10:47;;;;;;;10.90;8.05;;;10.30;1.00;;;;;;4862663;29;20044;-77
2021/10/12 04:13:13;;;;;;;9.18;7.47;;;10.30;1.00;;;;;;4863617;29;20086;-76
2021/10/12 04:15:39;;;;;;;9.85;7.82;;;10.30;1.00;;;;;;4863711;29;20102;-76
2021/10/12 04:18:05;;;;;;;10.13;7.93;;;10.20;1.00;;;;;;4864170;29;20052;-75
2021/10/12 04:20:32;;;;;;;9.73;7.72;;;10.20;1.00;;;;;;4853930;29;20045;-76
2021/10/12 04:22:59;;;;;;;10.90;8.27;;;10.20;1.00;;;;;;4845316;29;20046;-76
2021/10/12 04:25:28;;;;;;;11.15;8.13;;;10.10;1.00;;;;;;4845692;29;20045;-74
2021/10/12 04:27:55;;;;;;;9.75;8.18;;;10.10;1.00;;;;;;4853887;29;20042;-74
2021/10/12 04:30:21;;;;;;;12.27;8.13;;;10.10;1.00;;;;;;4851419;29;20509;-74
2021/10/12 04:32:47;;;;;;;10.25;7.65;;;10.00;1.00;;;;;;4853524;29;20123;-74
2021/10/12 04:35:13;;;;;;;13.50;8.50;;;10.00;1.00;;;;;;4851831;29;20118;-74
2021/10/12 04:37:39;;;;;;;9.82;7.30;;;10.00;1.00;;;;;;4862894;29;20045;-71
2021/10/12 04:40:05;;;;;;;11.75;8.43;;;10.00;1.00;;;;;;4861729;29;20060;-71
2021/10/12 04:42:31;;;;;;;11.77;8.57;;;9.90;1.00;;;;;;4862763;29;20513;-71
2021/10/12 04:44:58;;;;;;;9.95;7.72;;;9.90;1.00;;;;;;4863095;29;20065;-71
2021/10/12 04:47:25;;;;;;;10.60;8.40;;;9.90;1.00;;;;;;4862477;29;20510;-71
2021/10/12 04:49:51;;;;;;;9.60;8.02;;;9.90;1.00;;;;;;4861671;29;20089;-72
2021/10/12 04:52:17;;;;;;;11.40;8.02;;;10.00;1.00;;;;;;4860903;29;20060;-71
2021/10/12 04:54:42;;;;;;;11.10;7.80;;;10.00;1.00;;;;;;4859936;29;20049;-72
2021/10/12 04:57:08;;;;;;;11.77;8.13;;;9.90;1.00;;;;;;4861134;29;20045;-71
2021/10/12 04:59:34;;;;;;;10.45;7.32;;;9.90;1.00;;;;;;4861124;29;20044;-71
2021/10/12 05:02:00;;;;;;;11.75;8.10;;;9.90;1.00;;;;;;4861338;29;20152;-72
2021/10/12 05:04:26;;;;;;;11.55;7.90;;;9.80;1.00;;;;;;4862316;29;20057;-71
2021/10/12 05:06:52;;;;;;;10.93;8.25;;;9.80;1.00;;;;;;4862894;29;20049;-71
2021/10/12 05:09:18;;;;;;;11.00;8.50;;;9.80;1.00;;;;;;4863284;29;20504;-72
2021/10/12 05:11:44;;;;;;;9.65;7.80;;;9.70;1.00;;;;;;4862750;29;20505;-71
2021/10/12 05:14:09;;;;;;;14.02;8.25;;;9.70;1.00;;;;;;4863167;29;20087;-72
2021/10/12 05:16:35;;;;;;;9.82;7.93;;;9.70;1.00;;;;;;4862640;29;20068;-72
2021/10/12 05:19:01;;;;;;;9.90;8.15;;;9.80;1.00;;;;;;4862863;29;20038;-71
2021/10/12 05:21:28;;;;;;;12.95;8.25;;;9.70;1.00;;;;;;4862660;29;20048;-72
2021/10/12 05:23:54;;;;;;;10.57;8.23;;;9.80;1.00;;;;;;4862989;29;20129;-72
2021/10/12 05:26:22;;;;;;;9.25;7.60;;;9.80;1.00;;;;;;4862369;29;20045;-71
2021/10/12 05:28:51;;;;;;;10.15;8.07;;;9.70;1.00;;;;;;4862966;29;20093;-72
2021/10/12 05:31:19;;;;;;;11.02;7.80;;;9.70;1.00;;;;;;4862435;29;20049;-71
2021/10/12 05:33:45;;;;;;;11.07;8.00;;;9.70;1.00;;;;;;4862283;29;20049;-71
2021/10/12 05:36:11;;;;;;;10.88;7.93;;;9.70;1.00;;;;;;4862429;29;20068;-71
2021/10/12 05:38:37;;;;;;;9.95;7.60;;;9.70;1.00;;;;;;4863067;29;20497;-71
2021/10/12 05:41:03;;;;;;;10.85;7.72;;;9.70;1.00;;;;;;4861631;29;20041;-71
2021/10/12 05:43:28;;;;;;;11.55;8.10;;;9.70;1.00;;;;;;4862445;29;20097;-71
2021/10/12 05:45:54;;;;;;;10.25;7.65;;;9.70;1.00;;;;;;4862178;29;20041;-71
2021/10/12 05:48:20;;;;;;;10.15;8.25;;;9.70;1.00;;;;;;4862718;29;20049;-72
2021/10/12 05:50:47;;;;;;;12.45;8.15;;;9.80;1.00;;;;;;4862346;29;20077;-72
2021/10/12 05:53:28;;;;;;;9.18;7.80;;;9.90;1.00;;;;;;4862036;29;20073;-71
2021/10/12 05:56:00;;;;;;;8.70;7.05;;;10.00;1.00;;;;;;4862531;29;20125;-72
2021/10/12 05:58:43;;;;;;;9.02;7.43;;;9.90;1.00;;;;;;4862778;29;20053;-71
2021/10/12 06:01:09;;;;;;;9.90;6.82;;;9.90;1.00;;;;;;4861369;29;20053;-71
2021/10/12 06:03:35;;;;;;;10.00;7.70;;;10.00;1.00;;;;;;4862330;29;20049;-71
2021/10/12 06:06:02;;;;;;;11.55;7.45;;;10.00;1.00;;;;;;4862149;29;20513;-71
2021/10/12 06:08:30;;;;;;;9.98;7.47;;;10.00;1.00;;;;;;4845726;29;20042;-72
2021/10/12 06:10:57;;;;;;;10.23;7.85;;;10.10;1.00;;;;;;4843847;29;20067;-71
2021/10/12 06:13:23;;;;;;;10.23;7.18;;;10.10;1.00;;;;;;4843937;29;20052;-72
2021/10/12 06:15:50;;;;;;;9.30;6.97;;;10.00;1.00;;;;;;4843533;29;20106;-71
2021/10/12 06:18:16;;;;;;;11.48;8.07;;;10.00;1.00;;;;;;4844175;29;20038;-72
2021/10/12 06:20:42;;;;;;;10.77;6.78;;;10.00;1.00;;;;;;4843783;29;20049;-72
2021/10/12 06:23:11;;;;;;;9.23;6.65;;;10.00;1.00;;;;;;4843582;29;20046;-71
2021/10/12 06:25:38;;;;;;;10.30;7.05;;;10.00;1.00;;;;;;4844094;29;20124;-71
2021/10/12 06:28:05;;;;;;;9.52;7.55;;;10.10;1.00;;;;;;4844122;29;20050;-71
2021/10/12 06:30:31;;;;;;;8.90;6.82;;;10.00;1.00;;;;;;4843405;29;20045;-71
2021/10/12 06:32:57;;;;;;;9.55;6.65;;;10.10;1.00;;;;;;4847184;29;20041;-70
2021/10/12 06:35:24;;;;;;;8.75;7.00;;;10.10;1.00;;;;;;4845105;29;20072;-71
2021/10/12 06:37:49;;;;;;;11.98;7.45;;;10.20;1.00;;;;;;4843804;29;20037;-71
2021/10/12 06:40:16;;;;;;;10.07;7.07;;;10.10;1.00;;;;;;4843656;29;20057;-71
2021/10/12 06:42:42;;;;;;;9.82;6.88;;;10.20;1.00;;;;;;4843451;29;20082;-71
2021/10/12 06:45:08;;;;;;;11.13;6.75;;;10.10;1.00;;;;;;4843651;29;20085;-71
2021/10/12 06:47:34;;;;;;;9.90;6.80;;;10.10;1.00;;;;;;4843612;29;20129;-71
2021/10/12 06:49:59;;;;;;;8.45;6.72;;;10.20;1.00;;;;;;4842630;29;20132;-71
2021/10/12 06:52:25;;;;;;;8.70;6.88;;;10.20;1.00;;;;;;4843963;29;20045;-71
2021/10/12 06:54:51;;;;;;;9.05;6.72;;;10.30;1.00;;;;;;4845747;29;20562;-71
2021/10/12 06:57:17;;;;;;;9.65;6.70;;;10.40;1.00;;;;;;4846707;29;20046;-71
2021/10/12 06:59:43;;;;;;;10.48;6.32;;;10.50;1.00;;;;;;4846687;29;20038;-71
2021/10/12 07:02:08;;;;;;;7.97;6.50;;;10.50;1.00;;;;;;4846074;29;20265;-71
2021/10/12 07:04:34;;;;;;;9.43;6.05;;;10.50;1.00;;;;;;4845813;29;20042;-71
2021/10/12 07:07:00;;;;;;;7.43;5.88;;;10.50;1.00;;;;;;4848076;29;20125;-71
2021/10/12 07:09:27;;;;;;;9.85;6.05;;;10.60;1.00;;;;;;4847155;29;20052;-70
2021/10/12 07:11:52;;;;;;;8.32;6.20;;;10.70;1.00;;;;;;4846296;29;20057;-71
2021/10/12 07:14:18;;;;;;;6.50;4.97;;;10.80;1.00;;;;;;4851354;29;20045;-71
2021/10/12 07:16:44;;;;;;;8.40;5.93;;;10.80;1.00;;;;;;4856749;29;20113;-72
2021/10/12 07:19:10;;;;;;;8.57;6.18;;;10.90;1.00;;;;;;4846166;29;20060;-71
2021/10/12 07:21:36;;;;;;;9.13;6.20;;;11.00;1.00;;;;;;4846013;29;20097;-71
2021/10/12 07:24:02;;;;;;;6.95;5.63;;;11.00;1.00;;;;;;4846063;29;20214;-71
2021/10/12 07:26:28;;;;;;;8.50;6.20;;;11.00;1.00;;;;;;4846166;29;20046;-71
2021/10/12 07:28:57;;;;;;;6.75;5.35;;;11.10;1.00;;;;;;4846315;29;20046;-71
2021/10/12 07:31:23;;;;;;;8.25;5.88;;;11.20;1.00;;;;;;4845781;29;20056;-71
2021/10/12 07:33:49;;;;;;;7.47;5.22;;;11.30;1.00;;;;;;4844545;29;20050;-71
2021/10/12 07:36:15;;;;;;;7.40;5.68;;;11.40;1.00;;;;;;4844294;29;20057;-71
2021/10/12 07:38:41;;;;;;;6.55;4.97;;;11.40;1.00;;;;;;4844401;29;20084;-71
2021/10/12 07:41:07;;;;;;;7.72;5.47;;;11.50;1.00;;;;;;4844287;29;20510;-70
2021/10/12 07:43:33;;;;;;;9.88;5.60;;;11.50;1.00;;;;;;4844545;29;20054;-69
2021/10/12 07:45:59;;;;;;;7.30;5.10;;;11.60;1.00;;;;;;4844298;29;20054;-71
2021/10/12 07:48:24;;;;;;;6.18;5.13;;;11.70;1.00;;;;;;4844278;29;20090;-69
2021/10/12 07:50:51;;;;;;;7.25;5.28;;;11.60;1.00;;;;;;4845655;29;20046;-71
2021/10/12 07:53:17;;;;;;;7.82;5.57;;;11.70;1.00;;;;;;4845837;29;20073;-71
2021/10/12 07:55:57;;;;;;;6.70;5.32;;;11.70;1.00;;;;;;4843777;29;20129;-71
2021/10/12 07:58:24;;;;;;;7.78;5.65;;;11.80;1.00;;;;;;4843639;29;20518;-73
2021/10/12 08:00:50;;;;;;;7.97;5.60;;;11.80;1.00;;;;;;4843574;29;20094;-72
2021/10/12 08:03:17;;;;;;;7.82;5.40;;;11.90;1.00;;;;;;4842823;29;20414;-72
2021/10/12 08:05:46;;;;;;;6.95;5.53;;;11.90;1.00;;;;;;4845198;29;20486;-72
2021/10/12 08:08:12;;;;;;;9.15;5.35;;;12.00;1.00;;;;;;4845454;29;20050;-72
2021/10/12 08:10:39;;;;;;;8.85;5.57;;;12.00;1.00;;;;;;4845431;29;20489;-71
2021/10/12 08:13:07;;;;;;;7.15;5.45;;;12.10;1.00;;;;;;4845265;29;20094;-70
2021/10/12 08:15:34;;;;;;;6.65;5.20;;;12.00;1.00;;;;;;4844968;29;20075;-70
2021/10/12 08:18:00;;;;;;;6.68;5.80;;;12.20;1.00;;;;;;4846220;29;20106;-69
2021/10/12 08:20:26;;;;;;;9.05;6.00;;;12.20;1.00;;;;;;4845236;29;20077;-69
2021/10/12 08:22:54;;;;;;;7.05;5.43;;;12.20;1.00;;;;;;4845319;29;20069;-69
2021/10/12 08:25:20;;;;;;;9.23;5.10;;;12.20;1.00;;;;;;4841479;29;20136;-69
2021/10/12 08:27:46;;;;;;;6.20;5.05;;;12.20;1.00;;;;;;4844765;29;20080;-69
2021/10/12 08:30:13;;;;;;;8.52;5.25;;;12.30;1.00;;;;;;4844717;29;20566;-69
2021/10/12 08:32:40;;;;;;;5.75;4.65;;;12.30;1.00;;;;;;4845028;29;20042;-69
2021/10/12 08:35:08;;;;;;;7.53;5.55;;;12.30;1.00;;;;;;4844837;29;20057;-69
2021/10/12 08:37:35;;;;;;;7.63;5.93;;;12.30;1.00;;;;;;4845153;29;20046;-69
2021/10/12 08:40:01;;;;;;;6.18;5.35;;;12.30;1.00;;;;;;4844504;29;20046;-69
2021/10/12 08:42:47;;;;;;;7.80;5.18;;;12.40;1.00;;;;;;4844930;29;20049;-69
2021/10/12 08:45:14;;;;;;;10.00;5.30;;;12.50;1.00;;;;;;4845489;29;20075;-69
2021/10/12 08:47:42;;;;;;;7.18;5.20;;;12.40;1.00;;;;;;4844754;29;20045;-69
2021/10/12 08:50:15;;;;;;;6.93;5.57;;;12.40;1.00;;;;;;4844792;29;20524;-69
2021/10/12 08:52:43;;;;;;;10.13;5.30;;;12.50;1.00;;;;;;4844838;29;20042;-69
2021/10/12 08:55:09;;;;;;;5.78;5.10;;;12.50;1.00;;;;;;4845241;29;20048;-69
2021/10/12 08:57:39;;;;;;;6.32;5.13;;;12.60;1.00;;;;;;4844748;29;20509;-69
2021/10/12 09:00:09;;;;;;;8.30;6.07;;;12.60;1.00;;;;;;4844657;29;20046;-70
2021/10/12 09:02:55;;;;;;;8.68;5.47;;;12.70;1.00;;;;;;4844524;29;20145;-69
2021/10/12 09:05:25;;;;;;;10.05;6.05;;;12.60;1.00;;;;;;4844854;29;20042;-70
2021/10/12 09:07:51;;;;;;;7.30;5.05;;;12.70;1.00;;;;;;4844351;29;20516;-70
2021/10/12 09:10:21;;;;;;;7.07;6.38;;;12.70;1.00;;;;;;4844168;29;20156;-70
2021/10/12 09:12:49;;;;;;;8.02;6.68;;;12.70;1.00;;;;;;4844787;29;20049;-71
2021/10/12 09:15:16;;;;;;;11.82;7.72;;;12.70;1.00;;;;;;4844530;29;20044;-69
2021/10/12 09:17:46;;;;;;;16.08;8.48;;;12.70;1.00;;;;;;4833800;29;20042;-71
2021/10/12 09:20:11;;;;;;;10.85;6.80;;;12.60;1.00;;;;;;4844696;29;20037;-71
2021/10/12 09:22:38;;;;;;;9.80;7.03;;;12.60;1.00;;;;;;4843039;29;20546;-71
2021/10/12 09:25:14;;;;;;;10.30;7.32;;;12.60;1.00;;;;;;4844129;29;20049;-71
2021/10/12 09:27:54;;;;;;;8.63;6.90;;;12.60;1.00;;;;;;4844218;29;20069;-71
2021/10/12 09:30:31;;;;;;;8.05;6.57;;;12.70;1.00;;;;;;4844236;29;20053;-71
2021/10/12 09:32:59;;;;;;;7.80;6.63;;;12.70;1.00;;;;;;4843641;29;20046;-72
2021/10/12 09:35:29;;;;;;;9.88;7.18;;;12.70;1.00;;;;;;4844014;29;20042;-71
2021/10/12 09:38:02;;;;;;;8.38;7.40;;;12.80;1.00;;;;;;4844163;29;20049;-71
2021/10/12 09:40:27;;;;;;;8.13;6.97;;;12.80;1.00;;;;;;4843952;29;20088;-72
2021/10/12 09:42:53;;;;;;;9.02;7.15;;;12.80;1.00;;;;;;4844525;29;20069;-71
2021/10/12 09:45:33;;;;;;;9.05;6.38;;;12.90;1.00;;;;;;4843751;29;20045;-72
2021/10/12 09:47:58;;;;;;;8.63;6.82;;;12.90;1.00;;;;;;4843697;29;20042;-71
2021/10/12 09:50:31;;;;;;;9.13;6.68;;;12.90;1.00;;;;;;4843958;29;20129;-71
2021/10/12 09:52:56;;;;;;;7.65;6.72;;;12.90;1.00;;;;;;4843528;29;20071;-71
2021/10/12 09:55:33;;;;;;;8.80;7.00;;;12.90;1.00;;;;;;4843836;29;20081;-71
2021/10/12 09:57:58;;;;;;;7.68;6.70;;;13.00;1.00;;;;;;4844054;29;20058;-70
2021/10/12 10:00:24;;;;;;;9.50;7.28;;;13.00;1.00;;;;;;4843625;29;20045;-70
2021/10/12 10:02:51;;;;;;;9.20;6.88;;;13.10;1.00;;;;;;4843300;29;20060;-70
2021/10/12 10:05:17;;;;;;;8.45;7.50;;;13.10;1.00;;;;;;4843708;29;20073;-70
2021/10/12 10:07:47;;;;;;;10.57;7.43;;;13.10;1.00;;;;;;4843699;29;20054;-73
2021/10/12 10:10:16;;;;;;;13.95;8.40;;;13.20;1.00;;;;;;4843849;29;20520;-73
2021/10/12 10:12:42;;;;;;;9.73;6.63;;;13.20;1.00;;;;;;4843413;29;20049;-72
2021/10/12 10:15:08;;;;;;;8.68;7.53;;;13.20;1.00;;;;;;4843314;29;20048;-73
2021/10/12 10:17:35;;;;;;;9.35;7.50;;;13.30;1.00;;;;;;4843205;29;20113;-73
2021/10/12 10:20:06;;;;;;;11.18;7.38;;;13.30;1.00;;;;;;4843206;29;20145;-73
2021/10/12 10:22:35;;;;;;;10.88;8.60;;;13.40;1.00;;;;;;4843071;29;20073;-70
2021/10/12 10:25:21;;;;;;;11.80;8.13;;;13.30;1.00;;;;;;4842746;29;20578;-73
2021/10/12 10:27:47;;;;;;;11.48;8.57;;;13.30;1.00;;;;;;4845972;29;20042;-73
2021/10/12 10:30:19;;;;;;;11.73;8.70;;;13.30;1.00;;;;;;4846969;29;20075;-73
2021/10/12 10:32:53;;;;;;;13.90;8.95;;;13.30;1.00;;;;;;4846544;29;20098;-73
2021/10/12 10:35:40;;;;;;;11.02;9.10;;;13.30;1.00;;;;;;4847354;29;20029;-73
2021/10/12 10:38:21;;;;;;;11.32;9.50;;;13.30;1.00;;;;;;4843253;29;20041;-71
2021/10/12 10:40:48;;;;;;;;;;;13.20;1.00;;;;;;4848686;29;20402;-72
2021/10/12 10:43:14;;;;;;;11.02;9.27;;;13.20;1.00;;;;;;4847866;29;19923;-72
2021/10/12 10:45:45;;;;;;;12.27;10.00;;;13.20;1.00;;;;;;4846841;29;20048;-72
2021/10/12 10:48:13;;;;;;;11.45;9.23;;;13.10;1.00;;;;;;4846715;29;20052;-72
2021/10/12 10:50:40;;;;;;;11.52;10.18;;;13.20;1.00;;;;;;4846653;29;20100;-72
2021/10/12 10:53:09;;;;;;;13.23;10.35;;;13.20;1.00;;;;;;4845226;29;20541;-71
2021/10/12 10:55:39;;;;;;;12.60;9.40;;;13.20;1.00;;;;;;4846453;29;20065;-71
2021/10/12 10:58:18;;;;;;;12.20;10.20;;;13.30;1.00;;;;;;4846704;29;20046;-71
2021/10/12 11:00:45;;;;;;;11.63;9.52;;;13.30;1.00;;;;;;4846275;29;20506;-72
2021/10/12 11:03:29;;;;;;;12.48;9.93;;;13.30;1.00;;;;;;4845130;29;20128;-72
2021/10/12 11:06:11;;;;;;;12.43;9.40;;;13.40;1.00;;;;;;4845767;29;20050;-72
2021/10/12 11:08:40;;;;;;;13.23;10.20;;;13.40;1.00;;;;;;4845788;29;20132;-72
2021/10/12 11:11:08;;;;;;;11.85;9.25;;;13.40;1.00;;;;;;4845579;29;20506;-72
2021/10/12 11:13:44;;;;;;;12.75;9.55;;;13.40;1.00;;;;;;4845906;29;20041;-72
2021/10/12 11:16:12;;;;;;;12.32;9.90;;;13.40;1.00;;;;;;4846052;29;20529;-72
2021/10/12 11:18:40;;;;;;;11.73;9.43;;;13.40;1.00;;;;;;4829323;29;20057;-71
2021/10/12 11:21:09;;;;;;;13.05;10.07;;;13.40;1.00;;;;;;4845189;29;20052;-72
2021/10/12 11:23:36;;;;;;;12.05;9.80;;;13.40;1.00;;;;;;4846227;29;20048;-72
2021/10/12 11:26:14;;;;;;;13.30;10.65;;;13.40;1.00;;;;;;4846554;29;20132;-72
2021/10/12 11:28:47;;;;;;;14.93;10.82;;;13.30;1.00;;;;;;4846856;29;20085;-72
2021/10/12 11:31:14;;;;;;;16.98;11.07;;;13.20;1.00;;;;;;4845865;29;20053;-71
2021/10/12 11:33:43;;;;;;;12.68;10.75;;;13.10;1.00;;;;;;4846236;29;20106;-72
2021/10/12 11:36:11;;;;;;;14.40;10.60;;;13.10;1.00;;;;;;4846178;29;20038;-72
2021/10/12 11:38:39;;;;;;;15.43;11.10;;;13.00;1.00;;;;;;4846153;29;20050;-71
2021/10/12 11:41:30;;;;;;;12.90;10.40;;;13.00;1.00;;;;;;4846219;29;20107;-72
2021/10/12 11:44:14;;;;;;;14.93;11.10;;;13.00;1.00;;;;;;4845694;29;20440;-72
2021/10/12 11:46:44;;;;;;;12.43;10.07;;;13.00;1.00;;;;;;4845751;29;20042;-72
2021/10/12 11:49:12;;;;;;;15.27;10.70;;;13.00;1.00;;;;;;4846083;29;20050;-71
2021/10/12 11:51:39;;;;;;;16.65;10.90;;;12.90;1.00;;;;;;4845656;29;20046;-71
2021/10/12 11:54:05;;;;;;;13.48;10.30;;;12.90;1.00;;;;;;4845547;29;20042;-72
2021/10/12 11:56:34;;;;;;;13.75;11.02;;;12.90;1.00;;;;;;4845591;29;20064;-71
2021/10/12 11:59:00;;;;;;;14.23;11.25;;;13.00;1.00;;;;;;4846143;29;20045;-71
2021/10/12 12:01:32;;;;;;;14.50;10.55;;;13.00;1.00;;;;;;4845543;29;20579;-71
2021/10/12 12:03:59;;;;;;;13.35;10.57;;;13.00;1.00;;;;;;4845346;29;20050;-71
2021/10/12 12:06:33;;;;;;;14.02;10.75;;;13.00;1.00;;;;;;4845708;29;20061;-71
2021/10/12 12:09:07;;;;;;;13.65;10.32;;;13.00;1.00;;;;;;4846039;29;20054;-71
2021/10/12 12:11:34;;;;;;;13.55;10.98;;;13.00;1.00;;;;;;4845923;29;20053;-71
2021/10/12 12:14:03;;;;;;;12.73;9.52;;;13.10;1.00;;;;;;4845466;29;20048;-71
2021/10/12 12:16:33;;;;;;;13.95;10.32;;;13.10;1.00;;;;;;4845592;29;20371;-71
2021/10/12 12:19:00;;;;;;;12.23;10.00;;;13.10;1.00;;;;;;4846008;29;20478;-71
2021/10/12 12:21:33;;;;;;;14.68;10.70;;;13.10;1.00;;;;;;4845474;29;20050;-71
2021/10/12 12:24:01;;;;;;;15.00;10.95;;;13.20;1.00;;;;;;4845510;29;20053;-71
2021/10/12 12:26:30;;;;;;;14.48;10.35;;;13.20;1.00;;;;;;4845638;29;20064;-71
2021/10/12 12:29:16;;;;;;;15.40;11.07;;;13.20;1.00;;;;;;4846161;29;20084;-71
2021/10/12 12:31:53;;;;;;;12.65;10.63;;;13.20;1.00;;;;;;4845655;29;20052;-71
2021/10/12 12:34:34;;;;;;;14.55;11.45;;;13.20;1.00;;;;;;4845712;29;20052;-71
2021/10/12 12:37:02;;;;;;;14.35;10.82;;;13.30;1.00;;;;;;4845109;29;20041;-71
2021/10/12 12:39:33;;;;;;;16.63;12.13;;;13.30;1.00;;;;;;4845695;29;20041;-71
2021/10/12 12:41:59;;;;;;;15.27;11.57;;;13.40;1.00;;;;;;4845145;29;20057;-71
2021/10/12 12:44:24;;;;;;;13.75;10.98;;;13.50;1.00;;;;;;4845203;29;20049;-71
2021/10/12 12:46:55;;;;;;;12.55;10.20;;;13.50;1.00;;;;;;4845007;29;20034;-71
2021/10/12 12:49:23;;;;;;;;;;;13.50;1.00;;;;;;4845419;29;20074;-71
2021/10/12 12:51:49;;;;;;;12.82;10.35;;;13.60;1.00;;;;;;4844789;29;19913;-71
2021/10/12 12:54:46;;;;;;;13.18;10.65;;;13.70;1.00;;;;;;4845121;29;20077;-71
2021/10/12 12:57:16;;;;;;;15.13;10.50;;;13.70;1.00;;;;;;4844624;29;20614;-71